sensor_id;sensor_type;location;lat;lon;timestamp;temperature;humidity
15217;DHT22;7711;46.634;14.318;2023-06-10T00:01:39;15.60;1.00
15217;DHT22;7711;46.634;14.318;2023-06-10T00:04:06;15.60;1.00
15217;DHT22;7711;46.634;14.318;2023-06-10T00:06:33;15.50;1.00
15217;DHT22;7711;46.634;14.318;2023-06-10T00:09:02;15.50;1.00
15217;DHT22;7711;46.634;14.318;2023-06-10T00:11:31;15.40;1.00
15217;DHT22;7711;46.634;14.318;2023-06-10T00:13:58;15.50;1.00
15217;DHT22;7711;46.634;14.318;2023-06-10T00:16:26;15.40;1.00
15217;DHT22;7711;46.634;14.318;2023-06-10T00:18:54;15.50;1.00
15217;DHT22;7711;46.634;14.318;2023-06-10T00:21:26;15.40;1.00
15217;DHT22;7711;46.634;14.318;2023-06-10T00:23:53;15.40;1.00
15217;DHT22;7711;46.634;14.318;2023-06-10T00:26:21;15.40;1.00
15217;DHT22;7711;46.634;14.318;2023-06-10T00:28:48;15.40;1.00
15217;DHT22;7711;46.634;14.318;2023-06-10T00:31:15;15.30;1.00
15217;DHT22;7711;46.634;14.318;2023-06-10T00:33:44;15.30;1.00
15217;DHT22;7711;46.634;14.318;2023-06-10T00:36:11;15.30;1.00
15217;DHT22;7711;46.634;14.318;2023-06-10T00:38:38;15.20;99.90
15217;DHT22;7711;46.634;14.318;2023-06-10T00:41:06;15.20;99.90
15217;DHT22;7711;46.634;14.318;2023-06-10T00:43:33;15.10;99.90
15217;DHT22;7711;46.634;14.318;2023-06-10T00:46:00;15.10;99.90
15217;DHT22;7711;46.634;14.318;2023-06-10T00:48:27;15.10;1.00
15217;DHT22;7711;46.634;14.318;2023-06-10T00:50:56;15.00;99.90
15217;DHT22;7711;46.634;14.318;2023-06-10T00:53:23;15.00;99.90
15217;DHT22;7711;46.634;14.318;2023-06-10T00:55:51;15.00;99.90
15217;DHT22;7711;46.634;14.318;2023-06-10T00:58:18;15.00;99.90
15217;DHT22;7711;46.634;14.318;2023-06-10T01:00:45;15.00;1.00
15217;DHT22;7711;46.634;14.318;2023-06-10T01:03:12;15.00;99.90
15217;DHT22;7711;46.634;14.318;2023-06-10T01:05:40;14.90;1.00
15217;DHT22;7711;46.634;14.318;2023-06-10T01:08:18;14.80;1.00
15217;DHT22;7711;46.634;14.318;2023-06-10T01:10:50;14.80;1.00
15217;DHT22;7711;46.634;14.318;2023-06-10T01:13:18;14.70;1.00
15217;DHT22;7711;46.634;14.318;2023-06-10T01:15:50;14.70;1.00
15217;DHT22;7711;46.634;14.318;2023-06-10T01:18:18;14.70;1.00
15217;DHT22;7711;46.634;14.318;2023-06-10T01:20:46;14.60;90.80
15217;DHT22;7711;46.634;14.318;2023-06-10T01:23:15;14.70;99.90
15217;DHT22;7711;46.634;14.318;2023-06-10T01:25:46;14.70;99.90
15217;DHT22;7711;46.634;14.318;2023-06-10T01:28:18;14.50;99.90
15217;DHT22;7711;46.634;14.318;2023-06-10T01:30:50;14.50;1.00
15217;DHT22;7711;46.634;14.318;2023-06-10T01:33:27;14.40;1.00
15217;DHT22;7711;46.634;14.318;2023-06-10T01:35:55;14.40;99.90
15217;DHT22;7711;46.634;14.318;2023-06-10T01:38:25;14.40;99.90
15217;DHT22;7711;46.634;14.318;2023-06-10T01:40:54;14.40;99.90
15217;DHT22;7711;46.634;14.318;2023-06-10T01:43:22;14.40;99.90
15217;DHT22;7711;46.634;14.318;2023-06-10T01:45:49;14.40;99.90
15217;DHT22;7711;46.634;14.318;2023-06-10T01:48:16;14.40;99.90
15217;DHT22;7711;46.634;14.318;2023-06-10T01:50:43;14.40;99.90
15217;DHT22;7711;46.634;14.318;2023-06-10T01:53:10;14.40;99.90
15217;DHT22;7711;46.634;14.318;2023-06-10T01:55:38;14.30;99.90
15217;DHT22;7711;46.634;14.318;2023-06-10T01:58:05;14.30;99.90
15217;DHT22;7711;46.634;14.318;2023-06-10T02:00:32;14.20;1.00
15217;DHT22;7711;46.634;14.318;2023-06-10T02:02:59;14.20;1.00
15217;DHT22;7711;46.634;14.318;2023-06-10T02:05:26;14.20;1.00
15217;DHT22;7711;46.634;14.318;2023-06-10T02:07:53;14.20;1.00
15217;DHT22;7711;46.634;14.318;2023-06-10T02:10:20;14.20;1.00
15217;DHT22;7711;46.634;14.318;2023-06-10T02:12:48;14.20;1.00
15217;DHT22;7711;46.634;14.318;2023-06-10T02:15:15;14.20;1.00
15217;DHT22;7711;46.634;14.318;2023-06-10T02:17:42;14.10;99.90
15217;DHT22;7711;46.634;14.318;2023-06-10T02:20:11;14.10;1.00
15217;DHT22;7711;46.634;14.318;2023-06-10T02:22:39;14.00;1.00
15217;DHT22;7711;46.634;14.318;2023-06-10T02:25:06;14.00;99.90
15217;DHT22;7711;46.634;14.318;2023-06-10T02:27:33;14.00;1.00
15217;DHT22;7711;46.634;14.318;2023-06-10T02:30:02;14.00;1.00
15217;DHT22;7711;46.634;14.318;2023-06-10T02:32:29;14.10;1.00
15217;DHT22;7711;46.634;14.318;2023-06-10T02:34:56;14.00;99.90
15217;DHT22;7711;46.634;14.318;2023-06-10T02:37:23;14.00;1.00
15217;DHT22;7711;46.634;14.318;2023-06-10T02:39:50;14.10;1.00
15217;DHT22;7711;46.634;14.318;2023-06-10T02:42:17;14.00;99.90
15217;DHT22;7711;46.634;14.318;2023-06-10T02:44:44;13.90;99.90
15217;DHT22;7711;46.634;14.318;2023-06-10T02:47:12;13.90;99.90
15217;DHT22;7711;46.634;14.318;2023-06-10T02:49:40;13.90;1.00
15217;DHT22;7711;46.634;14.318;2023-06-10T02:52:07;13.90;1.00
15217;DHT22;7711;46.634;14.318;2023-06-10T02:54:34;13.90;1.00
15217;DHT22;7711;46.634;14.318;2023-06-10T02:57:01;13.90;1.00
15217;DHT22;7711;46.634;14.318;2023-06-10T02:59:28;13.90;1.00
15217;DHT22;7711;46.634;14.318;2023-06-10T03:01:55;13.80;1.00
15217;DHT22;7711;46.634;14.318;2023-06-10T03:04:23;13.80;1.00
15217;DHT22;7711;46.634;14.318;2023-06-10T03:06:51;13.80;1.00
15217;DHT22;7711;46.634;14.318;2023-06-10T03:09:18;13.80;74.80
15217;DHT22;7711;46.634;14.318;2023-06-10T03:11:45;13.80;28.90
15217;DHT22;7711;46.634;14.318;2023-06-10T03:14:11;13.80;99.90
15217;DHT22;7711;46.634;14.318;2023-06-10T03:16:38;13.80;99.90
15217;DHT22;7711;46.634;14.318;2023-06-10T03:19:06;13.90;99.90
15217;DHT22;7711;46.634;14.318;2023-06-10T03:21:35;13.90;99.90
15217;DHT22;7711;46.634;14.318;2023-06-10T03:24:03;14.00;99.90
15217;DHT22;7711;46.634;14.318;2023-06-10T03:26:30;14.00;1.00
15217;DHT22;7711;46.634;14.318;2023-06-10T03:28:57;14.00;1.00
15217;DHT22;7711;46.634;14.318;2023-06-10T03:31:24;14.10;6.80
15217;DHT22;7711;46.634;14.318;2023-06-10T03:33:51;14.00;1.00
15217;DHT22;7711;46.634;14.318;2023-06-10T03:36:18;14.10;1.00
15217;DHT22;7711;46.634;14.318;2023-06-10T03:38:46;14.10;1.00
15217;DHT22;7711;46.634;14.318;2023-06-10T03:41:13;14.10;1.00
15217;DHT22;7711;46.634;14.318;2023-06-10T03:43:40;14.10;1.00
15217;DHT22;7711;46.634;14.318;2023-06-10T03:46:07;14.10;1.00
15217;DHT22;7711;46.634;14.318;2023-06-10T03:48:34;14.10;1.00
15217;DHT22;7711;46.634;14.318;2023-06-10T03:51:02;14.30;1.00
15217;DHT22;7711;46.634;14.318;2023-06-10T03:53:28;14.40;1.00
15217;DHT22;7711;46.634;14.318;2023-06-10T03:55:57;14.50;99.90
15217;DHT22;7711;46.634;14.318;2023-06-10T03:58:24;14.50;1.00
15217;DHT22;7711;46.634;14.318;2023-06-10T04:00:51;14.50;1.00
15217;DHT22;7711;46.634;14.318;2023-06-10T04:03:19;14.50;1.00
15217;DHT22;7711;46.634;14.318;2023-06-10T04:05:46;14.40;1.00
15217;DHT22;7711;46.634;14.318;2023-06-10T04:08:13;14.50;1.00
15217;DHT22;7711;46.634;14.318;2023-06-10T04:10:40;14.50;1.00
15217;DHT22;7711;46.634;14.318;2023-06-10T04:13:09;14.60;1.00
15217;DHT22;7711;46.634;14.318;2023-06-10T04:15:36;14.60;1.00
15217;DHT22;7711;46.634;14.318;2023-06-10T04:18:04;14.60;1.00
15217;DHT22;7711;46.634;14.318;2023-06-10T04:20:31;14.70;1.00
15217;DHT22;7711;46.634;14.318;2023-06-10T04:22:58;14.70;1.00
15217;DHT22;7711;46.634;14.318;2023-06-10T04:25:25;14.70;1.00
15217;DHT22;7711;46.634;14.318;2023-06-10T04:27:52;14.80;1.00
15217;DHT22;7711;46.634;14.318;2023-06-10T04:30:21;14.80;99.90
15217;DHT22;7711;46.634;14.318;2023-06-10T04:32:48;14.90;99.90
15217;DHT22;7711;46.634;14.318;2023-06-10T04:35:15;14.80;99.90
15217;DHT22;7711;46.634;14.318;2023-06-10T04:37:42;14.90;99.90
15217;DHT22;7711;46.634;14.318;2023-06-10T04:40:10;14.90;99.90
15217;DHT22;7711;46.634;14.318;2023-06-10T04:42:37;15.00;99.90
15217;DHT22;7711;46.634;14.318;2023-06-10T04:45:05;15.10;99.90
15217;DHT22;7711;46.634;14.318;2023-06-10T04:47:33;15.10;99.90
15217;DHT22;7711;46.634;14.318;2023-06-10T04:50:00;15.00;44.20
15217;DHT22;7711;46.634;14.318;2023-06-10T04:52:28;15.20;83.90
15217;DHT22;7711;46.634;14.318;2023-06-10T04:54:57;15.30;1.00
15217;DHT22;7711;46.634;14.318;2023-06-10T04:57:24;15.30;1.00
15217;DHT22;7711;46.634;14.318;2023-06-10T04:59:52;15.40;1.00
15217;DHT22;7711;46.634;14.318;2023-06-10T05:02:19;15.60;1.00
15217;DHT22;7711;46.634;14.318;2023-06-10T05:04:47;15.90;1.00
15217;DHT22;7711;46.634;14.318;2023-06-10T05:07:14;16.00;1.00
15217;DHT22;7711;46.634;14.318;2023-06-10T05:09:41;16.20;1.00
15217;DHT22;7711;46.634;14.318;2023-06-10T05:12:08;16.40;1.00
15217;DHT22;7711;46.634;14.318;2023-06-10T05:14:35;16.30;1.00
15217;DHT22;7711;46.634;14.318;2023-06-10T05:17:03;16.20;1.00
15217;DHT22;7711;46.634;14.318;2023-06-10T05:19:31;16.20;1.00
15217;DHT22;7711;46.634;14.318;2023-06-10T05:21:59;16.20;1.00
15217;DHT22;7711;46.634;14.318;2023-06-10T05:24:26;16.30;1.00
15217;DHT22;7711;46.634;14.318;2023-06-10T05:26:53;16.50;1.00
15217;DHT22;7711;46.634;14.318;2023-06-10T05:29:20;16.40;1.00
15217;DHT22;7711;46.634;14.318;2023-06-10T05:31:47;16.50;1.00
15217;DHT22;7711;46.634;14.318;2023-06-10T05:34:14;16.60;1.00
15217;DHT22;7711;46.634;14.318;2023-06-10T05:36:41;16.70;1.00
15217;DHT22;7711;46.634;14.318;2023-06-10T05:39:10;16.80;1.00
15217;DHT22;7711;46.634;14.318;2023-06-10T05:41:36;16.90;1.00
15217;DHT22;7711;46.634;14.318;2023-06-10T05:44:04;16.90;1.00
15217;DHT22;7711;46.634;14.318;2023-06-10T05:46:31;17.20;1.00
15217;DHT22;7711;46.634;14.318;2023-06-10T05:48:58;17.10;1.00
15217;DHT22;7711;46.634;14.318;2023-06-10T05:51:25;17.20;1.00
15217;DHT22;7711;46.634;14.318;2023-06-10T05:53:53;17.30;1.00
15217;DHT22;7711;46.634;14.318;2023-06-10T05:56:21;17.40;99.90
15217;DHT22;7711;46.634;14.318;2023-06-10T05:58:49;17.40;99.90
15217;DHT22;7711;46.634;14.318;2023-06-10T06:01:16;17.30;99.90
15217;DHT22;7711;46.634;14.318;2023-06-10T06:03:42;17.30;99.90
15217;DHT22;7711;46.634;14.318;2023-06-10T06:06:09;17.20;99.90
15217;DHT22;7711;46.634;14.318;2023-06-10T06:08:36;17.00;99.90
15217;DHT22;7711;46.634;14.318;2023-06-10T06:11:03;16.90;99.90
15217;DHT22;7711;46.634;14.318;2023-06-10T06:13:31;17.00;99.90
15217;DHT22;7711;46.634;14.318;2023-06-10T06:15:58;17.00;99.90
15217;DHT22;7711;46.634;14.318;2023-06-10T06:18:26;17.40;99.90
15217;DHT22;7711;46.634;14.318;2023-06-10T06:20:53;17.50;99.90
15217;DHT22;7711;46.634;14.318;2023-06-10T06:23:20;17.60;99.90
15217;DHT22;7711;46.634;14.318;2023-06-10T06:25:47;17.50;99.90
15217;DHT22;7711;46.634;14.318;2023-06-10T06:28:14;17.60;99.90
15217;DHT22;7711;46.634;14.318;2023-06-10T06:30:42;17.80;99.90
15217;DHT22;7711;46.634;14.318;2023-06-10T06:33:09;18.10;99.90
15217;DHT22;7711;46.634;14.318;2023-06-10T06:35:36;18.30;99.90
15217;DHT22;7711;46.634;14.318;2023-06-10T06:38:03;18.50;99.90
15217;DHT22;7711;46.634;14.318;2023-06-10T06:40:30;18.80;99.90
15217;DHT22;7711;46.634;14.318;2023-06-10T06:42:57;18.90;99.90
15217;DHT22;7711;46.634;14.318;2023-06-10T06:45:24;18.40;99.90
15217;DHT22;7711;46.634;14.318;2023-06-10T06:47:52;18.10;99.90
15217;DHT22;7711;46.634;14.318;2023-06-10T06:50:19;18.20;99.90
15217;DHT22;7711;46.634;14.318;2023-06-10T06:52:46;18.40;99.90
15217;DHT22;7711;46.634;14.318;2023-06-10T06:55:13;18.60;99.90
15217;DHT22;7711;46.634;14.318;2023-06-10T06:57:40;18.70;99.90
15217;DHT22;7711;46.634;14.318;2023-06-10T07:00:08;19.00;99.90
15217;DHT22;7711;46.634;14.318;2023-06-10T07:02:35;19.10;99.90
15217;DHT22;7711;46.634;14.318;2023-06-10T07:05:04;19.50;99.90
15217;DHT22;7711;46.634;14.318;2023-06-10T07:07:31;19.50;99.90
15217;DHT22;7711;46.634;14.318;2023-06-10T07:09:58;19.70;99.90
15217;DHT22;7711;46.634;14.318;2023-06-10T07:12:25;19.80;99.90
15217;DHT22;7711;46.634;14.318;2023-06-10T07:14:52;20.10;99.90
15217;DHT22;7711;46.634;14.318;2023-06-10T07:17:18;20.10;99.90
15217;DHT22;7711;46.634;14.318;2023-06-10T07:19:46;20.40;99.90
15217;DHT22;7711;46.634;14.318;2023-06-10T07:22:14;20.30;99.90
15217;DHT22;7711;46.634;14.318;2023-06-10T07:24:41;20.10;99.90
15217;DHT22;7711;46.634;14.318;2023-06-10T07:27:08;20.30;99.90
15217;DHT22;7711;46.634;14.318;2023-06-10T07:29:35;20.40;99.90
15217;DHT22;7711;46.634;14.318;2023-06-10T07:32:03;20.50;99.90
15217;DHT22;7711;46.634;14.318;2023-06-10T07:34:30;20.50;99.90
15217;DHT22;7711;46.634;14.318;2023-06-10T07:36:57;20.30;99.90
15217;DHT22;7711;46.634;14.318;2023-06-10T07:39:25;20.00;99.90
15217;DHT22;7711;46.634;14.318;2023-06-10T07:41:52;20.00;99.90
15217;DHT22;7711;46.634;14.318;2023-06-10T07:44:22;20.00;99.90
15217;DHT22;7711;46.634;14.318;2023-06-10T07:46:49;20.20;99.90
15217;DHT22;7711;46.634;14.318;2023-06-10T07:49:16;20.50;99.90
15217;DHT22;7711;46.634;14.318;2023-06-10T07:51:43;20.60;99.90
15217;DHT22;7711;46.634;14.318;2023-06-10T07:54:10;20.70;99.90
15217;DHT22;7711;46.634;14.318;2023-06-10T07:56:40;20.80;99.90
15217;DHT22;7711;46.634;14.318;2023-06-10T07:59:07;20.80;99.90
15217;DHT22;7711;46.634;14.318;2023-06-10T08:01:34;20.40;99.90
15217;DHT22;7711;46.634;14.318;2023-06-10T08:04:04;19.80;99.90
15217;DHT22;7711;46.634;14.318;2023-06-10T08:06:31;20.20;99.90
15217;DHT22;7711;46.634;14.318;2023-06-10T08:08:58;20.40;99.90
15217;DHT22;7711;46.634;14.318;2023-06-10T08:11:25;20.50;99.90
15217;DHT22;7711;46.634;14.318;2023-06-10T08:13:55;20.90;99.90
15217;DHT22;7711;46.634;14.318;2023-06-10T08:16:22;21.00;99.90
15217;DHT22;7711;46.634;14.318;2023-06-10T08:18:49;21.10;99.90
15217;DHT22;7711;46.634;14.318;2023-06-10T08:21:17;20.80;99.90
15217;DHT22;7711;46.634;14.318;2023-06-10T08:23:43;20.70;99.90
15217;DHT22;7711;46.634;14.318;2023-06-10T08:26:11;21.00;99.90
15217;DHT22;7711;46.634;14.318;2023-06-10T08:28:38;20.80;99.90
15217;DHT22;7711;46.634;14.318;2023-06-10T08:31:06;20.80;99.90
15217;DHT22;7711;46.634;14.318;2023-06-10T08:33:33;21.00;99.90
15217;DHT22;7711;46.634;14.318;2023-06-10T08:36:00;21.30;99.90
15217;DHT22;7711;46.634;14.318;2023-06-10T08:38:27;21.60;99.90
15217;DHT22;7711;46.634;14.318;2023-06-10T08:40:56;21.70;99.90
15217;DHT22;7711;46.634;14.318;2023-06-10T08:43:31;21.90;99.90
15217;DHT22;7711;46.634;14.318;2023-06-10T08:46:00;21.70;99.90
15217;DHT22;7711;46.634;14.318;2023-06-10T08:48:29;21.50;99.90
15217;DHT22;7711;46.634;14.318;2023-06-10T08:50:57;21.60;99.90
15217;DHT22;7711;46.634;14.318;2023-06-10T08:53:24;21.70;99.90
15217;DHT22;7711;46.634;14.318;2023-06-10T08:55:53;21.90;99.90
15217;DHT22;7711;46.634;14.318;2023-06-10T08:58:20;22.00;99.90
15217;DHT22;7711;46.634;14.318;2023-06-10T09:00:47;22.00;99.90
15217;DHT22;7711;46.634;14.318;2023-06-10T09:03:14;22.30;99.90
15217;DHT22;7711;46.634;14.318;2023-06-10T09:05:43;22.10;99.90
15217;DHT22;7711;46.634;14.318;2023-06-10T09:08:11;22.10;99.90
15217;DHT22;7711;46.634;14.318;2023-06-10T09:10:38;22.20;99.90
15217;DHT22;7711;46.634;14.318;2023-06-10T09:13:05;22.30;99.90
15217;DHT22;7711;46.634;14.318;2023-06-10T09:15:32;22.40;99.90
15217;DHT22;7711;46.634;14.318;2023-06-10T09:17:59;22.40;99.90
15217;DHT22;7711;46.634;14.318;2023-06-10T09:20:27;22.60;99.90
15217;DHT22;7711;46.634;14.318;2023-06-10T09:22:56;22.80;99.90
15217;DHT22;7711;46.634;14.318;2023-06-10T09:25:35;22.70;99.90
15217;DHT22;7711;46.634;14.318;2023-06-10T09:28:03;22.90;99.90
15217;DHT22;7711;46.634;14.318;2023-06-10T09:30:31;23.10;99.90
15217;DHT22;7711;46.634;14.318;2023-06-10T09:32:59;23.00;99.90
15217;DHT22;7711;46.634;14.318;2023-06-10T09:35:27;23.10;99.90
15217;DHT22;7711;46.634;14.318;2023-06-10T09:37:57;23.30;99.90
15217;DHT22;7711;46.634;14.318;2023-06-10T09:40:24;23.20;99.90
15217;DHT22;7711;46.634;14.318;2023-06-10T09:42:53;23.40;99.90
15217;DHT22;7711;46.634;14.318;2023-06-10T09:45:22;23.40;99.90
15217;DHT22;7711;46.634;14.318;2023-06-10T09:47:51;23.70;99.90
15217;DHT22;7711;46.634;14.318;2023-06-10T09:50:19;23.80;99.90
15217;DHT22;7711;46.634;14.318;2023-06-10T09:52:47;23.50;99.90
15217;DHT22;7711;46.634;14.318;2023-06-10T09:55:16;23.40;99.90
15217;DHT22;7711;46.634;14.318;2023-06-10T09:57:43;23.50;99.90
15217;DHT22;7711;46.634;14.318;2023-06-10T10:00:14;23.70;99.90
15217;DHT22;7711;46.634;14.318;2023-06-10T10:02:46;24.30;99.90
15217;DHT22;7711;46.634;14.318;2023-06-10T10:05:14;24.60;99.90
15217;DHT22;7711;46.634;14.318;2023-06-10T10:07:41;24.50;99.90
15217;DHT22;7711;46.634;14.318;2023-06-10T10:10:09;24.10;99.90
15217;DHT22;7711;46.634;14.318;2023-06-10T10:12:38;24.60;99.90
15217;DHT22;7711;46.634;14.318;2023-06-10T10:15:06;25.00;99.90
15217;DHT22;7711;46.634;14.318;2023-06-10T10:17:34;24.70;99.90
15217;DHT22;7711;46.634;14.318;2023-06-10T10:20:05;24.90;99.90
15217;DHT22;7711;46.634;14.318;2023-06-10T10:22:39;25.10;99.90
15217;DHT22;7711;46.634;14.318;2023-06-10T10:25:10;25.10;99.90
15217;DHT22;7711;46.634;14.318;2023-06-10T10:27:44;25.80;99.90
15217;DHT22;7711;46.634;14.318;2023-06-10T10:30:12;26.30;99.90
15217;DHT22;7711;46.634;14.318;2023-06-10T10:32:44;26.80;99.90
15217;DHT22;7711;46.634;14.318;2023-06-10T10:35:17;26.60;99.90
15217;DHT22;7711;46.634;14.318;2023-06-10T10:37:44;26.70;99.90
15217;DHT22;7711;46.634;14.318;2023-06-10T10:40:12;26.50;99.90
15217;DHT22;7711;46.634;14.318;2023-06-10T10:42:41;26.20;99.90
15217;DHT22;7711;46.634;14.318;2023-06-10T10:45:10;26.30;99.90
15217;DHT22;7711;46.634;14.318;2023-06-10T10:47:38;26.10;99.90
15217;DHT22;7711;46.634;14.318;2023-06-10T10:50:14;25.80;99.90
15217;DHT22;7711;46.634;14.318;2023-06-10T10:52:51;25.90;99.90
15217;DHT22;7711;46.634;14.318;2023-06-10T10:55:20;26.30;99.90
15217;DHT22;7711;46.634;14.318;2023-06-10T10:57:55;27.00;99.90
15217;DHT22;7711;46.634;14.318;2023-06-10T11:00:28;26.90;99.90
15217;DHT22;7711;46.634;14.318;2023-06-10T11:02:58;27.40;99.90
15217;DHT22;7711;46.634;14.318;2023-06-10T11:05:36;27.30;99.90
15217;DHT22;7711;46.634;14.318;2023-06-10T11:08:03;27.10;99.90
15217;DHT22;7711;46.634;14.318;2023-06-10T11:10:31;27.60;99.90
15217;DHT22;7711;46.634;14.318;2023-06-10T11:13:02;26.60;99.90
15217;DHT22;7711;46.634;14.318;2023-06-10T11:15:32;27.10;99.90
15217;DHT22;7711;46.634;14.318;2023-06-10T11:18:10;27.50;99.90
15217;DHT22;7711;46.634;14.318;2023-06-10T11:20:57;27.40;99.90
15217;DHT22;7711;46.634;14.318;2023-06-10T11:23:32;27.00;99.90
15217;DHT22;7711;46.634;14.318;2023-06-10T11:29:08;26.80;99.90
15217;DHT22;7711;46.634;14.318;2023-06-10T11:31:40;26.00;99.90
15217;DHT22;7711;46.634;14.318;2023-06-10T11:34:08;26.80;99.90
15217;DHT22;7711;46.634;14.318;2023-06-10T11:36:37;27.50;99.90
15217;DHT22;7711;46.634;14.318;2023-06-10T11:39:06;27.60;99.90
15217;DHT22;7711;46.634;14.318;2023-06-10T11:41:34;26.60;99.90
15217;DHT22;7711;46.634;14.318;2023-06-10T11:44:03;26.60;99.90
15217;DHT22;7711;46.634;14.318;2023-06-10T11:46:31;26.80;99.90
15217;DHT22;7711;46.634;14.318;2023-06-10T11:48:59;26.80;99.90
15217;DHT22;7711;46.634;14.318;2023-06-10T11:51:30;26.60;99.90
15217;DHT22;7711;46.634;14.318;2023-06-10T11:53:57;26.80;99.90
15217;DHT22;7711;46.634;14.318;2023-06-10T11:56:26;26.50;99.90
15217;DHT22;7711;46.634;14.318;2023-06-10T11:58:55;26.40;99.90
15217;DHT22;7711;46.634;14.318;2023-06-10T12:01:23;26.50;99.90
15217;DHT22;7711;46.634;14.318;2023-06-10T12:03:59;26.40;99.90
15217;DHT22;7711;46.634;14.318;2023-06-10T12:06:26;26.30;99.90
15217;DHT22;7711;46.634;14.318;2023-06-10T12:08:53;26.10;99.90
15217;DHT22;7711;46.634;14.318;2023-06-10T12:11:21;26.60;99.90
15217;DHT22;7711;46.634;14.318;2023-06-10T12:13:49;26.70;99.90
15217;DHT22;7711;46.634;14.318;2023-06-10T12:16:16;27.40;99.90
15217;DHT22;7711;46.634;14.318;2023-06-10T12:18:45;27.60;99.90
15217;DHT22;7711;46.634;14.318;2023-06-10T12:21:18;28.20;99.90
15217;DHT22;7711;46.634;14.318;2023-06-10T12:24:05;27.70;99.10
15217;DHT22;7711;46.634;14.318;2023-06-10T12:26:40;27.80;97.60
15217;DHT22;7711;46.634;14.318;2023-06-10T12:29:21;27.80;99.20
15217;DHT22;7711;46.634;14.318;2023-06-10T12:32:00;27.70;97.80
15217;DHT22;7711;46.634;14.318;2023-06-10T12:34:34;27.40;96.20
15217;DHT22;7711;46.634;14.318;2023-06-10T12:37:04;27.50;97.10
15217;DHT22;7711;46.634;14.318;2023-06-10T12:39:32;27.70;95.20
15217;DHT22;7711;46.634;14.318;2023-06-10T12:42:00;27.70;95.40
15217;DHT22;7711;46.634;14.318;2023-06-10T12:44:32;27.20;94.80
15217;DHT22;7711;46.634;14.318;2023-06-10T12:47:00;28.00;94.70
15217;DHT22;7711;46.634;14.318;2023-06-10T12:49:27;27.50;90.40
15217;DHT22;7711;46.634;14.318;2023-06-10T12:51:54;27.20;85.50
15217;DHT22;7711;46.634;14.318;2023-06-10T12:54:22;27.40;90.20
15217;DHT22;7711;46.634;14.318;2023-06-10T12:56:49;27.70;86.30
15217;DHT22;7711;46.634;14.318;2023-06-10T12:59:16;27.10;83.30
15217;DHT22;7711;46.634;14.318;2023-06-10T13:01:43;27.30;88.30
15217;DHT22;7711;46.634;14.318;2023-06-10T13:04:10;27.20;85.40
15217;DHT22;7711;46.634;14.318;2023-06-10T13:06:38;27.70;89.30
15217;DHT22;7711;46.634;14.318;2023-06-10T13:09:06;28.80;85.70
15217;DHT22;7711;46.634;14.318;2023-06-10T13:11:35;28.90;75.80
15217;DHT22;7711;46.634;14.318;2023-06-10T13:14:03;28.30;76.80
15217;DHT22;7711;46.634;14.318;2023-06-10T13:16:31;27.90;74.60
15217;DHT22;7711;46.634;14.318;2023-06-10T13:18:59;27.80;77.70
15217;DHT22;7711;46.634;14.318;2023-06-10T13:21:26;27.60;69.80
15217;DHT22;7711;46.634;14.318;2023-06-10T13:23:53;27.20;71.50
15217;DHT22;7711;46.634;14.318;2023-06-10T13:26:20;27.60;78.10
15217;DHT22;7711;46.634;14.318;2023-06-10T13:28:49;28.30;78.20
15217;DHT22;7711;46.634;14.318;2023-06-10T13:31:16;29.20;75.50
15217;DHT22;7711;46.634;14.318;2023-06-10T13:33:43;29.60;65.40
15217;DHT22;7711;46.634;14.318;2023-06-10T13:36:10;30.40;63.60
15217;DHT22;7711;46.634;14.318;2023-06-10T13:38:37;30.10;58.20
15217;DHT22;7711;46.634;14.318;2023-06-10T13:41:04;29.60;59.20
15217;DHT22;7711;46.634;14.318;2023-06-10T13:43:32;29.80;62.40
15217;DHT22;7711;46.634;14.318;2023-06-10T13:46:00;29.80;68.20
15217;DHT22;7711;46.634;14.318;2023-06-10T13:48:27;29.30;64.80
15217;DHT22;7711;46.634;14.318;2023-06-10T13:50:54;27.90;68.10
15217;DHT22;7711;46.634;14.318;2023-06-10T13:53:21;27.30;73.40
15217;DHT22;7711;46.634;14.318;2023-06-10T13:55:48;25.90;83.60
15217;DHT22;7711;46.634;14.318;2023-06-10T13:58:15;25.70;90.50
15217;DHT22;7711;46.634;14.318;2023-06-10T14:00:42;25.40;88.10
15217;DHT22;7711;46.634;14.318;2023-06-10T14:03:10;25.40;85.10
15217;DHT22;7711;46.634;14.318;2023-06-10T14:05:37;25.50;87.30
15217;DHT22;7711;46.634;14.318;2023-06-10T14:08:05;26.10;99.90
15217;DHT22;7711;46.634;14.318;2023-06-10T14:10:32;26.20;78.70
15217;DHT22;7711;46.634;14.318;2023-06-10T14:12:59;26.20;79.90
15217;DHT22;7711;46.634;14.318;2023-06-10T14:15:26;26.00;83.90
15217;DHT22;7711;46.634;14.318;2023-06-10T14:17:53;25.30;90.30
15217;DHT22;7711;46.634;14.318;2023-06-10T14:20:22;25.00;90.20
15217;DHT22;7711;46.634;14.318;2023-06-10T14:22:51;24.90;92.50
15217;DHT22;7711;46.634;14.318;2023-06-10T14:25:18;24.80;92.90
15217;DHT22;7711;46.634;14.318;2023-06-10T14:27:44;24.60;93.30
15217;DHT22;7711;46.634;14.318;2023-06-10T14:30:13;24.50;95.00
15217;DHT22;7711;46.634;14.318;2023-06-10T14:32:40;24.20;97.60
15217;DHT22;7711;46.634;14.318;2023-06-10T14:35:07;24.00;97.00
15217;DHT22;7711;46.634;14.318;2023-06-10T14:37:36;24.00;98.50
15217;DHT22;7711;46.634;14.318;2023-06-10T14:40:04;23.80;98.50
15217;DHT22;7711;46.634;14.318;2023-06-10T14:42:31;23.60;99.90
15217;DHT22;7711;46.634;14.318;2023-06-10T14:44:58;23.40;99.90
15217;DHT22;7711;46.634;14.318;2023-06-10T14:47:25;22.60;99.90
15217;DHT22;7711;46.634;14.318;2023-06-10T14:49:52;22.10;99.90
15217;DHT22;7711;46.634;14.318;2023-06-10T14:52:19;21.90;99.90
15217;DHT22;7711;46.634;14.318;2023-06-10T14:54:47;21.80;99.90
15217;DHT22;7711;46.634;14.318;2023-06-10T14:57:14;21.60;99.90
15217;DHT22;7711;46.634;14.318;2023-06-10T14:59:41;21.50;99.90
15217;DHT22;7711;46.634;14.318;2023-06-10T15:02:08;21.40;99.90
15217;DHT22;7711;46.634;14.318;2023-06-10T15:04:35;21.40;99.90
15217;DHT22;7711;46.634;14.318;2023-06-10T15:07:02;21.40;99.90
15217;DHT22;7711;46.634;14.318;2023-06-10T15:09:29;21.40;99.90
15217;DHT22;7711;46.634;14.318;2023-06-10T15:11:58;21.30;99.90
15217;DHT22;7711;46.634;14.318;2023-06-10T15:14:26;21.20;99.90
15217;DHT22;7711;46.634;14.318;2023-06-10T15:16:53;21.20;99.90
15217;DHT22;7711;46.634;14.318;2023-06-10T15:19:21;21.20;99.90
15217;DHT22;7711;46.634;14.318;2023-06-10T15:21:48;21.20;99.90
15217;DHT22;7711;46.634;14.318;2023-06-10T15:24:15;21.30;99.90
15217;DHT22;7711;46.634;14.318;2023-06-10T15:26:42;21.20;99.90
15217;DHT22;7711;46.634;14.318;2023-06-10T15:29:10;21.10;99.90
15217;DHT22;7711;46.634;14.318;2023-06-10T15:31:37;21.10;99.90
15217;DHT22;7711;46.634;14.318;2023-06-10T15:34:04;21.20;99.90
15217;DHT22;7711;46.634;14.318;2023-06-10T15:36:32;21.20;99.90
15217;DHT22;7711;46.634;14.318;2023-06-10T15:39:03;21.20;99.90
15217;DHT22;7711;46.634;14.318;2023-06-10T15:41:32;21.20;99.90
15217;DHT22;7711;46.634;14.318;2023-06-10T15:43:59;21.20;99.90